Time;durP1;ratioP1;P1;durP2;ratioP2;P2;SDS_P1;SDS_P2;PMS_P1;PMS_P2;Temp;Humidity;BMP_temperature;BMP_pressure;BME280_temperature;BME280_humidity;BME280_pressure;Samples;Min_cycle;Max_cycle;Signal;HPM_P1;HPM_P2
2023/06/14 00:01:06;;;;;;;7.32;2.80;;;;;;;24.34;27.61;99677.00;5020049;28;20045;-67
2023/06/14 00:03:31;;;;;;;13.98;3.45;;;;;;;24.35;27.60;99671.31;5053832;28;20445;-67
2023/06/14 00:05:57;;;;;;;11.05;3.47;;;;;;;24.31;27.55;99685.63;5053294;28;20055;-67
2023/06/14 00:08:25;;;;;;;7.28;3.30;;;;;;;24.29;27.70;99685.88;5003842;28;20135;-67
2023/06/14 00:10:51;;;;;;;7.03;3.40;;;;;;;24.31;27.78;99680.19;5004372;28;20048;-67
2023/06/14 00:13:18;;;;;;;12.63;3.50;;;;;;;24.24;27.47;99679.50;5005965;28;20463;-67
2023/06/14 00:15:46;;;;;;;14.70;3.90;;;;;;;24.45;27.57;99676.91;5029013;28;20050;-67
2023/06/14 00:18:13;;;;;;;12.18;3.85;;;;;;;24.31;27.59;99683.72;5012373;28;20480;-67
2023/06/14 00:20:39;;;;;;;11.38;3.65;;;;;;;24.24;27.70;99683.06;5028848;28;20091;-67
2023/06/14 00:23:05;;;;;;;9.40;3.13;;;;;;;24.25;27.33;99681.16;4996175;28;20037;-67
2023/06/14 00:25:32;;;;;;;7.72;3.63;;;;;;;24.29;27.49;99687.75;5029212;28;20068;-67
2023/06/14 00:27:57;;;;;;;9.02;3.42;;;;;;;24.26;27.96;99686.34;4995724;28;20069;-67
2023/06/14 00:30:24;;;;;;;6.55;3.63;;;;;;;24.28;28.05;99680.69;5030172;28;20053;-67
2023/06/14 00:32:51;;;;;;;4.85;3.38;;;;;;;24.21;27.86;99680.00;4997952;28;20215;-67
2023/06/14 00:35:17;;;;;;;8.57;3.67;;;;;;;24.10;27.82;99683.59;5014204;28;20119;-67
2023/06/14 00:37:44;;;;;;;15.02;5.03;;;;;;;24.07;27.95;99678.66;5014323;28;20063;-67
2023/06/14 00:40:10;;;;;;;11.27;5.00;;;;;;;24.09;28.33;99677.38;4997892;28;20501;-66
2023/06/14 00:42:37;;;;;;;12.65;4.70;;;;;;;24.01;28.50;99675.06;5014356;28;20049;-67
2023/06/14 00:45:04;;;;;;;8.50;4.20;;;;;;;24.05;28.32;99675.41;5031067;28;20045;-67
2023/06/14 00:47:32;;;;;;;10.15;4.13;;;;;;;23.96;28.50;99679.53;5064803;28;20049;-67
2023/06/14 00:49:58;;;;;;;16.08;4.78;;;;;;;24.05;28.37;99673.47;5005588;28;20051;-67
2023/06/14 00:52:25;;;;;;;10.77;4.07;;;;;;;24.00;28.37;99686.16;5054704;28;20059;-67
2023/06/14 00:54:51;;;;;;;8.05;4.57;;;;;;;23.97;28.30;99686.63;5021820;28;20113;-67
2023/06/14 00:57:17;;;;;;;13.77;5.60;;;;;;;23.98;28.54;99682.84;5038493;28;20715;-67
2023/06/14 00:59:45;;;;;;;10.90;4.95;;;;;;;24.15;28.46;99679.09;5054639;28;20384;-66
2023/06/14 01:02:11;;;;;;;8.48;4.82;;;;;;;24.01;28.52;99672.34;5037871;28;20040;-67
2023/06/14 01:04:39;;;;;;;10.60;5.03;;;;;;;24.19;28.51;99687.56;5038239;28;20040;-67
2023/06/14 01:07:14;;;;;;;12.48;4.55;;;;;;;24.34;28.35;99688.66;5021893;28;20036;-67
2023/06/14 01:10:08;;;;;;;16.08;5.10;;;;;;;24.30;28.58;99681.25;5037878;28;20036;-67
2023/06/14 01:12:45;;;;;;;18.85;5.80;;;;;;;24.25;28.44;99687.41;5036922;28;20400;-67
2023/06/14 01:15:12;;;;;;;12.48;4.32;;;;;;;24.16;28.57;99686.16;5037840;28;20450;-67
2023/06/14 01:17:43;;;;;;;17.52;5.95;;;;;;;24.09;29.08;99687.41;5054289;28;20135;-67
2023/06/14 01:20:14;;;;;;;;;;;;;;;24.38;28.60;99687.13;5038944;28;20036;-67
2023/06/14 01:22:59;;;;;;;;;;;;;;;24.39;28.63;99686.03;5038860;28;19921;-67
2023/06/14 01:25:26;;;;;;;14.52;5.32;;;;;;;24.04;28.91;99684.59;5020186;28;20276;-67
2023/06/14 01:27:57;;;;;;;15.90;6.03;;;;;;;24.11;28.86;99691.50;5003800;28;20044;-67
2023/06/14 01:30:26;;;;;;;10.32;5.47;;;;;;;24.04;28.77;99684.59;5036889;28;20514;-67
2023/06/14 01:32:54;;;;;;;13.30;4.55;;;;;;;24.13;28.56;99688.53;5036974;28;20071;-67
2023/06/14 01:35:20;;;;;;;12.05;5.03;;;;;;;24.13;28.24;99688.53;5020405;28;20040;-67
2023/06/14 01:37:50;;;;;;;13.95;5.22;;;;;;;24.35;28.44;99689.50;5015638;28;20057;-67
2023/06/14 01:40:18;;;;;;;16.27;5.53;;;;;;;24.29;28.47;99688.59;5016392;28;20117;-67
2023/06/14 01:42:44;;;;;;;11.77;5.53;;;;;;;24.21;28.49;99690.88;5016805;28;20049;-67
2023/06/14 01:45:10;;;;;;;15.15;4.65;;;;;;;24.19;28.17;99680.25;4984411;28;20143;-67
2023/06/14 01:47:36;;;;;;;21.40;5.60;;;;;;;24.22;28.28;99684.34;5013570;28;20064;-68
2023/06/14 01:50:03;;;;;;;16.00;5.60;;;;;;;24.30;28.46;99679.38;4996967;28;20089;-68
2023/06/14 01:52:31;;;;;;;13.15;5.28;;;;;;;24.23;27.83;99689.53;4996483;28;20276;-67
2023/06/14 01:54:57;;;;;;;14.77;5.57;;;;;;;24.22;28.01;99689.78;4981223;28;20060;-68
2023/06/14 01:57:26;;;;;;;12.75;5.65;;;;;;;24.38;28.25;99691.72;4980841;28;20057;-67
2023/06/14 01:59:52;;;;;;;14.63;5.13;;;;;;;24.24;28.02;99683.06;4996854;28;20486;-67
2023/06/14 02:02:18;;;;;;;17.20;5.57;;;;;;;24.28;28.03;99678.78;4996903;28;20041;-67
2023/06/14 02:04:47;;;;;;;27.80;6.28;;;;;;;24.24;28.01;99679.50;4980585;28;20128;-68
2023/06/14 02:07:14;;;;;;;17.73;6.22;;;;;;;24.37;28.02;99687.34;5013489;28;20048;-65
2023/06/14 02:09:41;;;;;;;19.92;6.63;;;;;;;24.41;28.29;99680.34;5013524;28;20068;-66
2023/06/14 02:12:08;;;;;;;15.85;5.72;;;;;;;24.44;28.13;99680.69;5013176;28;20049;-65
2023/06/14 02:14:34;;;;;;;11.95;5.65;;;;;;;24.38;28.27;99686.28;5013058;28;20481;-65
2023/06/14 02:17:01;;;;;;;14.32;5.32;;;;;;;24.37;28.26;99681.94;4980665;28;20041;-65
2023/06/14 02:19:28;;;;;;;14.10;5.60;;;;;;;24.43;28.28;99686.38;5012738;28;20417;-66
2023/06/14 02:21:54;;;;;;;17.05;5.55;;;;;;;24.48;28.13;99691.88;4996526;28;20103;-66
2023/06/14 02:24:20;;;;;;;16.33;6.32;;;;;;;24.48;28.53;99692.69;4975093;28;20111;-65
2023/06/14 02:26:46;;;;;;;15.07;5.93;;;;;;;24.52;28.26;99683.00;5057441;28;20056;-65
2023/06/14 02:29:16;;;;;;;14.38;5.57;;;;;;;24.58;28.09;99687.44;5008941;28;20052;-65
2023/06/14 02:31:42;;;;;;;18.60;6.10;;;;;;;24.63;28.24;99679.34;5057980;28;20488;-66
2023/06/14 02:34:10;;;;;;;14.27;6.03;;;;;;;24.57;28.48;99685.78;5057355;28;20059;-66
2023/06/14 02:36:41;;;;;;;22.27;6.30;;;;;;;24.63;28.57;99692.13;5040703;28;20080;-65
2023/06/14 02:39:11;;;;;;;24.58;6.43;;;;;;;24.73;28.74;99689.59;5058159;28;20045;-65
2023/06/14 02:41:37;;;;;;;16.42;5.85;;;;;;;24.73;28.66;99703.19;5024094;28;20142;-66
2023/06/14 02:44:04;;;;;;;22.23;6.63;;;;;;;24.81;28.77;99695.44;5040669;28;20040;-65
2023/06/14 02:46:32;;;;;;;18.15;5.22;;;;;;;24.81;28.49;99692.72;5057142;28;20508;-65
2023/06/14 02:48:57;;;;;;;18.40;6.07;;;;;;;24.80;29.00;99692.97;5057117;28;20045;-65
2023/06/14 02:51:23;;;;;;;21.23;6.53;;;;;;;24.82;28.83;99696.25;5056860;28;20063;-65
2023/06/14 02:53:49;;;;;;;20.38;6.30;;;;;;;24.84;28.82;99694.94;5039880;28;20044;-65
2023/06/14 02:56:17;;;;;;;24.58;6.53;;;;;;;24.91;29.16;99697.47;5040428;28;20049;-65
2023/06/14 02:58:43;;;;;;;33.38;6.85;;;;;;;24.92;28.89;99699.94;5057429;28;20098;-65
2023/06/14 03:01:12;;;;;;;20.25;5.90;;;;;;;25.02;29.11;99693.84;5056554;28;20197;-65
2023/06/14 03:03:40;;;;;;;17.85;6.57;;;;;;;25.07;28.98;99702.06;5055733;28;20036;-71
2023/06/14 03:06:08;;;;;;;27.05;6.43;;;;;;;25.20;29.63;99690.81;5021759;28;20584;-72
2023/06/14 03:08:38;;;;;;;13.30;6.60;;;;;;;25.08;29.57;99700.19;5021650;28;20055;-68
2023/06/14 03:11:08;;;;;;;20.90;6.47;;;;;;;25.09;29.38;99705.38;5006519;28;20044;-68
2023/06/14 03:13:35;;;;;;;19.27;6.97;;;;;;;25.17;29.67;99696.75;5022403;28;20051;-69
2023/06/14 03:16:03;;;;;;;16.92;6.47;;;;;;;25.21;29.59;99703.38;5039122;28;20040;-68
2023/06/14 03:18:35;;;;;;;19.00;6.80;;;;;;;25.25;29.51;99699.06;5038873;28;20040;-67
2023/06/14 03:21:02;;;;;;;15.38;7.03;;;;;;;25.45;29.23;99698.56;5006335;28;20793;-68
2023/06/14 03:23:29;;;;;;;18.02;7.88;;;;;;;25.34;29.57;99697.56;5055996;28;20047;-68
2023/06/14 03:25:55;;;;;;;21.65;7.68;;;;;;;25.39;29.30;99699.53;5039189;28;20055;-68
2023/06/14 03:28:22;;;;;;;20.10;7.97;;;;;;;25.46;29.39;99706.47;5073310;28;20049;-67
2023/06/14 03:30:48;;;;;;;18.58;8.05;;;;;;;25.60;29.19;99696.81;5036870;28;20060;-67
2023/06/14 03:33:15;;;;;;;22.70;8.90;;;;;;;25.68;29.22;99696.38;5055826;28;20205;-66
2023/06/14 03:35:41;;;;;;;21.50;7.72;;;;;;;25.74;29.31;99691.84;5022411;28;20036;-66
2023/06/14 03:38:08;;;;;;;21.15;7.25;;;;;;;25.83;28.95;99701.19;5039664;28;20052;-67
2023/06/14 03:40:34;;;;;;;25.38;7.80;;;;;;;25.93;28.97;99702.13;5006804;28;20361;-68
2023/06/14 03:43:02;;;;;;;23.88;7.75;;;;;;;26.00;28.92;99700.03;5023125;28;20032;-64
2023/06/14 03:45:29;;;;;;;19.55;7.18;;;;;;;26.07;28.96;99700.69;5055002;28;20048;-66
2023/06/14 03:47:56;;;;;;;30.77;8.25;;;;;;;26.14;28.92;99695.00;5006387;28;20056;-67
2023/06/14 03:50:23;;;;;;;25.95;7.97;;;;;;;26.13;28.90;99686.03;5038456;28;20036;-66
2023/06/14 03:52:50;;;;;;;24.92;7.60;;;;;;;26.26;29.12;99696.47;5055157;28;20055;-67
2023/06/14 03:55:18;;;;;;;30.40;8.05;;;;;;;26.37;28.87;99700.94;5044994;28;20127;-65
2023/06/14 03:57:46;;;;;;;28.88;8.18;;;;;;;26.37;29.01;99703.69;5055781;28;20041;-67
2023/06/14 04:00:16;;;;;;;25.40;8.00;;;;;;;26.49;28.76;99696.16;5022319;28;20383;-65
2023/06/14 04:02:44;;;;;;;18.70;7.15;;;;;;;26.62;28.12;99705.78;5055252;28;20044;-65
2023/06/14 04:05:11;;;;;;;24.00;7.30;;;;;;;26.80;28.11;99708.13;5038738;28;20052;-65
2023/06/14 04:07:44;;;;;;;20.92;6.60;;;;;;;26.92;27.43;99705.25;5070036;28;20052;-65
2023/06/14 04:10:12;;;;;;;20.77;6.80;;;;;;;27.18;27.16;99696.13;5053139;28;20365;-65
2023/06/14 04:12:39;;;;;;;20.33;6.32;;;;;;;27.17;26.94;99703.50;5053389;28;20049;-65
2023/06/14 04:15:06;;;;;;;20.67;5.55;;;;;;;27.30;26.87;99710.41;5052399;28;20064;-66
2023/06/14 04:17:35;;;;;;;18.33;5.93;;;;;;;27.37;26.66;99702.84;5069767;28;20040;-65
2023/06/14 04:20:05;;;;;;;17.65;5.53;;;;;;;27.39;26.26;99703.38;5054173;28;20109;-65
2023/06/14 04:22:32;;;;;;;13.38;4.70;;;;;;;27.38;25.62;99701.72;5038433;28;20396;-65
2023/06/14 04:24:59;;;;;;;14.00;6.05;;;;;;;27.48;25.57;99705.31;5071729;28;20036;-65
2023/06/14 04:27:26;;;;;;;14.30;4.65;;;;;;;27.71;25.63;99714.97;5054938;28;20045;-65
2023/06/14 04:29:56;;;;;;;21.33;4.90;;;;;;;27.68;25.38;99702.69;5054749;28;20052;-65
2023/06/14 04:32:26;;;;;;;15.57;4.47;;;;;;;27.92;25.23;99701.16;5022498;28;20492;-65
2023/06/14 04:34:57;;;;;;;17.52;4.45;;;;;;;28.15;24.88;99709.94;5038504;28;20045;-66
2023/06/14 04:37:23;;;;;;;11.35;3.85;;;;;;;28.01;24.45;99712.38;5054660;28;20184;-65
2023/06/14 04:39:49;;;;;;;13.35;4.20;;;;;;;28.11;24.26;99709.66;5038682;28;20192;-64
2023/06/14 04:42:20;;;;;;;9.82;4.35;;;;;;;28.19;24.29;99698.22;5038654;28;20047;-65
2023/06/14 04:44:47;;;;;;;11.20;3.92;;;;;;;28.36;24.26;99708.88;5039318;28;20343;-65
2023/06/14 04:47:14;;;;;;;9.23;4.20;;;;;;;28.40;24.03;99699.84;5054533;28;20051;-65
2023/06/14 04:49:42;;;;;;;15.43;4.20;;;;;;;28.44;24.11;99705.59;5021315;28;20147;-65
2023/06/14 04:52:10;;;;;;;15.02;4.10;;;;;;;28.46;23.74;99696.03;5054389;28;20463;-65
2023/06/14 04:54:43;;;;;;;18.73;5.05;;;;;;;28.53;23.74;99706.75;5014417;28;20053;-65
2023/06/14 04:57:14;;;;;;;12.88;4.97;;;;;;;28.69;23.59;99703.72;5030330;28;20065;-66
2023/06/14 04:59:41;;;;;;;17.35;4.88;;;;;;;28.79;23.39;99702.91;5014719;28;20052;-65
2023/06/14 05:02:08;;;;;;;17.83;4.93;;;;;;;28.87;23.27;99703.19;5013805;28;20069;-66
2023/06/14 05:04:39;;;;;;;16.17;5.07;;;;;;;28.97;23.38;99708.63;5030287;28;20045;-65
2023/06/14 05:07:09;;;;;;;13.10;4.85;;;;;;;29.19;23.11;99694.66;5013775;28;20089;-65
2023/06/14 05:09:36;;;;;;;13.25;5.07;;;;;;;29.09;23.08;99698.22;5013645;28;20049;-65
2023/06/14 05:12:03;;;;;;;17.40;5.30;;;;;;;29.27;22.91;99703.13;4997417;28;20485;-66
2023/06/14 05:14:29;;;;;;;13.25;5.18;;;;;;;29.22;22.85;99711.34;5013666;28;20096;-65
2023/06/14 05:16:57;;;;;;;17.65;5.50;;;;;;;29.38;22.49;99710.19;5013846;28;20057;-65
2023/06/14 05:19:23;;;;;;;18.20;5.18;;;;;;;29.43;22.44;99707.44;4971049;28;20137;-64
2023/06/14 05:21:48;;;;;;;13.90;5.07;;;;;;;29.53;22.38;99704.69;4955046;28;20589;-66
2023/06/14 05:24:14;;;;;;;17.10;4.78;;;;;;;29.60;22.25;99702.47;4970921;28;20046;-65
2023/06/14 05:26:41;;;;;;;14.20;5.15;;;;;;;29.68;22.22;99703.81;4970903;28;20134;-65
2023/06/14 05:29:07;;;;;;;19.17;4.97;;;;;;;29.68;22.46;99701.09;4954667;28;20058;-66
2023/06/14 05:31:32;;;;;;;12.65;4.70;;;;;;;29.71;21.92;99699.72;4966112;28;20393;-67
2023/06/14 05:33:59;;;;;;;13.45;4.80;;;;;;;29.80;21.50;99707.03;5026631;28;20124;-66
2023/06/14 05:36:24;;;;;;;14.15;5.80;;;;;;;29.84;21.94;99696.34;4993505;28;20045;-65
2023/06/14 05:38:57;;;;;;;9.75;4.82;;;;;;;29.90;21.45;99697.97;4993731;28;20432;-65
2023/06/14 05:41:26;;;;;;;17.33;4.18;;;;;;;30.20;20.69;99689.63;5026377;28;20038;-65
2023/06/14 05:43:56;;;;;;;11.52;3.75;;;;;;;30.20;20.42;99684.94;5010236;28;20449;-66
2023/06/14 05:46:24;;;;;;;16.63;4.10;;;;;;;30.19;20.27;99704.38;4993850;28;20058;-66
2023/06/14 05:48:54;;;;;;;18.33;4.07;;;;;;;30.20;20.50;99690.41;4978285;28;20264;-66
2023/06/14 05:51:19;;;;;;;12.38;3.80;;;;;;;30.21;19.86;99700.28;5017894;28;20060;-66
2023/06/14 05:53:46;;;;;;;15.18;4.03;;;;;;;30.33;19.68;99706.22;5037502;28;20131;-66
2023/06/14 05:56:13;;;;;;;13.70;3.53;;;;;;;30.42;19.58;99710.00;5037482;28;20040;-65
2023/06/14 05:58:39;;;;;;;12.60;3.80;;;;;;;30.41;19.67;99702.06;5054925;28;20040;-66
2023/06/14 06:01:05;;;;;;;14.20;3.92;;;;;;;30.48;19.67;99706.09;5075535;28;20061;-65
2023/06/14 06:03:31;;;;;;;6.40;3.33;;;;;;;30.58;19.16;99713.44;5057722;28;20076;-66
2023/06/14 06:05:56;;;;;;;14.13;3.92;;;;;;;30.72;19.69;99711.69;5057923;28;20063;-66
2023/06/14 06:08:22;;;;;;;13.98;3.80;;;;;;;30.76;18.91;99715.50;5075554;28;20511;-66
2023/06/14 06:10:48;;;;;;;11.30;3.38;;;;;;;30.78;18.64;99714.09;5057170;28;20044;-66
2023/06/14 06:13:14;;;;;;;8.57;3.17;;;;;;;30.79;18.07;99721.25;5056770;28;20050;-66
2023/06/14 06:15:40;;;;;;;10.68;4.65;;;;;;;30.77;18.24;99712.47;5057207;28;20063;-67
2023/06/14 06:18:06;;;;;;;11.65;3.53;;;;;;;30.80;17.60;99711.91;5057102;28;20139;-66
2023/06/14 06:20:32;;;;;;;14.20;3.80;;;;;;;30.85;17.67;99711.03;5037412;28;20041;-66
2023/06/14 06:22:58;;;;;;;9.48;3.35;;;;;;;31.00;17.69;99714.44;5054352;28;20132;-65
2023/06/14 06:25:26;;;;;;;5.80;2.78;;;;;;;31.04;17.63;99726.47;5037780;28;20047;-66
2023/06/14 06:27:53;;;;;;;10.02;3.05;;;;;;;31.06;17.82;99717.97;5037931;28;20139;-68
2023/06/14 06:30:20;;;;;;;10.80;3.38;;;;;;;31.20;17.77;99718.09;5004672;28;20040;-69
2023/06/14 06:32:47;;;;;;;7.75;2.95;;;;;;;31.29;18.37;99719.97;5004901;28;20048;-64
2023/06/14 06:35:13;;;;;;;8.68;2.45;;;;;;;31.25;17.98;99707.88;5055075;28;20113;-69
2023/06/14 06:37:41;;;;;;;9.48;2.83;;;;;;;31.24;17.34;99713.66;5021103;28;20493;-66
2023/06/14 06:40:08;;;;;;;9.43;3.30;;;;;;;31.51;17.83;99703.75;5053879;28;20033;-66
2023/06/14 06:42:34;;;;;;;11.23;3.10;;;;;;;31.75;18.22;99698.25;5053963;28;20401;-66
2023/06/14 06:45:04;;;;;;;14.07;2.95;;;;;;;31.90;17.59;99709.06;5005298;28;20106;-66
2023/06/14 06:47:35;;;;;;;11.52;3.30;;;;;;;31.92;17.92;99713.16;5069745;28;20049;-66
2023/06/14 06:50:01;;;;;;;9.90;2.65;;;;;;;32.01;17.31;99708.66;5054319;28;20052;-66
2023/06/14 06:52:32;;;;;;;9.68;2.90;;;;;;;32.18;17.32;99710.88;5054017;28;20063;-66
2023/06/14 06:54:58;;;;;;;5.15;2.78;;;;;;;32.26;17.24;99711.00;5052940;28;20037;-65
2023/06/14 06:57:23;;;;;;;11.27;2.85;;;;;;;32.40;17.06;99716.59;5050115;28;20040;-66
2023/06/14 06:59:49;;;;;;;5.93;2.88;;;;;;;32.15;16.40;99703.22;5052991;28;20067;-66
2023/06/14 07:02:16;;;;;;;6.75;2.35;;;;;;;32.45;16.49;99714.59;5019031;28;20632;-66
2023/06/14 07:04:42;;;;;;;8.32;2.42;;;;;;;32.63;16.24;99711.00;5035338;28;20052;-66
2023/06/14 07:07:09;;;;;;;6.60;2.78;;;;;;;32.74;16.32;99706.13;5035232;28;20366;-66
2023/06/14 07:09:36;;;;;;;7.38;2.80;;;;;;;33.10;16.01;99712.69;5052944;28;20041;-67
2023/06/14 07:12:02;;;;;;;11.23;2.90;;;;;;;33.31;15.76;99708.44;5014891;28;20071;-66
2023/06/14 07:14:30;;;;;;;10.73;2.90;;;;;;;33.44;15.37;99696.66;5052611;28;20102;-65
2023/06/14 07:16:55;;;;;;;6.20;2.50;;;;;;;33.64;15.38;99692.66;5036582;28;20043;-66
2023/06/14 07:19:21;;;;;;;6.22;2.25;;;;;;;33.70;15.06;99707.94;5072837;28;20040;-66
2023/06/14 07:21:47;;;;;;;14.05;2.70;;;;;;;33.81;14.95;99696.38;5072976;28;20511;-66
2023/06/14 07:24:13;;;;;;;5.75;2.55;;;;;;;34.38;15.35;99700.41;5038774;28;20032;-66
2023/06/14 07:26:39;;;;;;;5.63;2.20;;;;;;;34.97;14.08;99697.25;5055245;28;20479;-67
2023/06/14 07:29:05;;;;;;;7.18;2.67;;;;;;;35.41;13.55;99690.81;5054928;28;20052;-66
2023/06/14 07:31:31;;;;;;;9.25;2.90;;;;;;;36.11;13.28;99690.66;5038791;28;20117;-66
2023/06/14 07:33:56;;;;;;;7.25;2.72;;;;;;;36.71;12.96;99697.84;5071626;28;20048;-66
2023/06/14 07:36:22;;;;;;;6.18;2.85;;;;;;;37.37;12.09;99709.44;5055458;28;20484;-66
2023/06/14 07:38:49;;;;;;;7.07;3.05;;;;;;;38.52;11.69;99696.66;5071766;28;20052;-66
2023/06/14 07:41:16;;;;;;;7.20;2.60;;;;;;;40.01;10.89;99699.47;5069960;28;20047;-66
2023/06/14 07:43:42;;;;;;;5.43;2.60;;;;;;;41.59;9.81;99690.03;5034545;28;20132;-67
2023/06/14 07:46:09;;;;;;;6.75;2.30;;;;;;;43.54;8.49;99701.25;5047467;28;20127;-67
2023/06/14 07:48:35;;;;;;;16.65;2.83;;;;;;;45.26;7.68;99703.53;5052451;28;20047;-67
2023/06/14 07:51:02;;;;;;;7.10;2.30;;;;;;;46.85;6.27;99698.59;5069852;28;20110;-66
2023/06/14 07:53:28;;;;;;;12.82;2.42;;;;;;;48.45;5.56;99695.28;5069972;28;20371;-68
2023/06/14 07:55:55;;;;;;;6.45;2.30;;;;;;;49.48;4.69;99699.88;5038573;28;20045;-67
2023/06/14 07:58:21;;;;;;;4.22;2.28;;;;;;;50.45;4.63;99688.78;5023523;28;20052;-68
2023/06/14 08:00:47;;;;;;;11.77;2.20;;;;;;;51.27;3.86;99696.91;5034670;28;20037;-68
2023/06/14 08:03:14;;;;;;;10.40;2.20;;;;;;;52.01;3.70;99696.41;5052253;28;20471;-68
2023/06/14 08:05:40;;;;;;;3.97;1.90;;;;;;;52.59;3.01;99698.47;5034653;28;20057;-67
2023/06/14 08:08:06;;;;;;;8.02;2.15;;;;;;;52.93;3.16;99690.38;5018109;28;20396;-68
2023/06/14 08:10:32;;;;;;;5.68;1.83;;;;;;;53.28;2.85;99685.94;5001962;28;20044;-68
2023/06/14 08:12:58;;;;;;;3.55;1.90;;;;;;;53.35;2.74;99692.22;5017114;28;20056;-67
2023/06/14 08:15:25;;;;;;;3.22;1.85;;;;;;;53.47;2.30;99685.81;5018198;28;20397;-68
2023/06/14 08:17:51;;;;;;;4.78;2.22;;;;;;;54.01;2.48;99688.06;5034260;28;20443;-68
2023/06/14 08:20:17;;;;;;;4.15;1.85;;;;;;;54.25;2.14;99687.38;5050982;28;20052;-67
2023/06/14 08:22:43;;;;;;;4.43;1.80;;;;;;;54.24;2.70;99676.44;5051657;28;20456;-68
2023/06/14 08:25:12;;;;;;;8.57;2.13;;;;;;;54.79;2.20;99682.44;5017782;28;20041;-68
2023/06/14 08:27:38;;;;;;;6.63;1.60;;;;;;;54.81;2.15;99684.84;5018251;28;20051;-68
2023/06/14 08:30:05;;;;;;;3.75;1.63;;;;;;;55.42;2.23;99684.47;5051649;28;20072;-67
2023/06/14 08:32:32;;;;;;;8.63;2.10;;;;;;;55.74;1.47;99678.47;5050681;28;20366;-67
2023/06/14 08:34:57;;;;;;;5.68;1.67;;;;;;;55.61;1.94;99684.22;5051788;28;20047;-67
2023/06/14 08:37:23;;;;;;;6.57;2.00;;;;;;;55.37;2.04;99676.50;5017963;28;20045;-68
2023/06/14 08:39:49;;;;;;;5.63;1.90;;;;;;;56.03;1.79;99673.34;5017661;28;20053;-68
2023/06/14 08:42:15;;;;;;;7.60;1.90;;;;;;;56.65;1.32;99665.69;5051221;28;20052;-68
2023/06/14 08:44:41;;;;;;;2.80;1.58;;;;;;;57.18;1.35;99667.97;5033999;28;20040;-67
2023/06/14 08:47:08;;;;;;;6.13;1.73;;;;;;;57.25;1.38;99658.31;4984924;28;20062;-68
2023/06/14 08:49:37;;;;;;;9.05;1.75;;;;;;;57.45;1.07;99656.63;5001078;28;20049;-67
2023/06/14 08:52:05;;;;;;;8.18;1.83;;;;;;;57.44;1.06;99660.72;5033808;28;20073;-67
2023/06/14 08:54:32;;;;;;;6.30;1.88;;;;;;;57.51;1.23;99656.75;5051170;28;20087;-68
2023/06/14 08:56:58;;;;;;;7.75;1.90;;;;;;;57.80;0.76;99650.59;5017198;28;20550;-68
2023/06/14 08:59:28;;;;;;;5.00;1.73;;;;;;;58.06;0.65;99655.50;5050883;28;20049;-68
2023/06/14 09:01:54;;;;;;;7.47;2.10;;;;;;;58.36;0.66;99648.78;5017420;28;20491;-67
2023/06/14 09:04:29;;;;;;;5.18;1.77;;;;;;;58.43;0.65;99656.25;5033451;28;20105;-67
2023/06/14 09:06:56;;;;;;;5.45;1.80;;;;;;;58.67;0.55;99648.53;5034169;28;20052;-68
2023/06/14 09:09:25;;;;;;;5.95;1.70;;;;;;;58.92;0.42;99648.09;5017430;28;20045;-67
2023/06/14 09:11:52;;;;;;;8.93;1.90;;;;;;;58.74;0.69;99640.41;5016521;28;20087;-67
2023/06/14 09:14:19;;;;;;;8.05;2.00;;;;;;;58.77;0.75;99642.31;5033364;28;20056;-67
2023/06/14 09:16:46;;;;;;;7.68;2.10;;;;;;;58.15;0.59;99629.78;5017037;28;20041;-67
2023/06/14 09:19:30;;;;;;;8.43;1.98;;;;;;;59.14;0.41;99634.31;5016883;28;20052;-68
2023/06/14 09:21:56;;;;;;;5.40;1.77;;;;;;;59.25;0.05;99633.75;5050095;28;20115;-68
2023/06/14 09:24:27;;;;;;;6.80;1.90;;;;;;;59.71;0.25;99632.16;5034434;28;20052;-67
2023/06/14 09:26:53;;;;;;;5.55;1.80;;;;;;;59.77;0.00;99622.38;5033266;28;20055;-69
2023/06/14 09:29:19;;;;;;;6.50;1.70;;;;;;;59.80;0.22;99617.72;5016622;28;20103;-68
2023/06/14 09:31:46;;;;;;;4.50;1.73;;;;;;;59.81;0.28;99625.06;5017074;28;20503;-68
2023/06/14 09:34:13;;;;;;;8.15;1.95;;;;;;;59.92;0.18;99622.41;5032443;28;20055;-68
2023/06/14 09:36:42;;;;;;;4.15;1.95;;;;;;;60.28;0.36;99622.03;5016726;28;20049;-68
2023/06/14 09:39:09;;;;;;;5.40;2.10;;;;;;;60.31;0.13;99615.31;5017354;28;20044;-68
2023/06/14 09:41:34;;;;;;;9.48;2.13;;;;;;;60.26;0.22;99618.88;5033098;28;20056;-68
2023/06/14 09:44:03;;;;;;;12.95;2.10;;;;;;;60.20;0.00;99618.78;5016703;28;20041;-68
2023/06/14 09:46:30;;;;;;;5.95;2.00;;;;;;;60.64;0.00;99609.34;5036012;28;20163;-68
2023/06/14 09:49:01;;;;;;;7.80;1.95;;;;;;;61.08;0.00;99602.19;5070824;28;20464;-68
2023/06/14 09:51:32;;;;;;;5.82;2.00;;;;;;;61.07;0.00;99609.19;4976408;28;20173;-68
2023/06/14 09:54:04;;;;;;;5.22;1.55;;;;;;;60.88;0.00;99595.59;4942978;28;20053;-69
2023/06/14 09:56:42;;;;;;;7.97;2.20;;;;;;;60.85;0.00;99603.16;4958271;28;20054;-68
2023/06/14 09:59:09;;;;;;;3.97;1.65;;;;;;;60.78;0.00;99592.06;4958043;28;20038;-68
2023/06/14 10:01:37;;;;;;;5.68;1.80;;;;;;;60.93;0.00;99586.28;4974909;28;20553;-68
2023/06/14 10:04:05;;;;;;;6.05;2.00;;;;;;;61.00;0.00;99586.66;5007196;28;20081;-68
2023/06/14 10:06:32;;;;;;;7.95;2.00;;;;;;;60.82;0.00;99581.16;4991206;28;20204;-68
2023/06/14 10:08:59;;;;;;;5.15;1.85;;;;;;;60.84;0.00;99581.44;4976232;28;20105;-69
2023/06/14 10:11:27;;;;;;;4.65;1.80;;;;;;;60.58;0.00;99583.38;4992314;28;20112;-68
2023/06/14 10:13:56;;;;;;;7.22;2.05;;;;;;;60.95;0.00;99584.50;4975967;28;20504;-68
2023/06/14 10:17:08;;;;;;;7.45;1.98;;;;;;;60.98;0.00;99586.38;4992585;28;20163;-68
2023/06/14 10:19:52;;;;;;;5.25;2.00;;;;;;;60.64;0.00;99580.63;4935426;28;20382;-68
2023/06/14 10:22:22;;;;;;;13.40;2.10;;;;;;;60.64;0.16;99578.50;5019483;28;20661;-68
2023/06/14 10:24:50;;;;;;;2.92;2.10;;;;;;;60.03;0.00;99579.56;5036021;28;20044;-68
2023/06/14 10:27:23;;;;;;;7.70;2.20;;;;;;;59.71;0.03;99575.59;5052122;28;20462;-68
2023/06/14 10:29:52;;;;;;;7.88;2.10;;;;;;;59.80;0.02;99571.84;5037188;28;20080;-68
2023/06/14 10:32:19;;;;;;;9.40;2.10;;;;;;;59.72;0.00;99570.63;5019955;28;20075;-67
2023/06/14 10:34:45;;;;;;;7.93;2.10;;;;;;;59.93;0.00;99567.41;5019847;28;20540;-68
2023/06/14 10:37:12;;;;;;;7.05;1.92;;;;;;;60.09;0.00;99577.59;5003194;28;20495;-68
2023/06/14 10:39:41;;;;;;;9.23;2.10;;;;;;;59.60;0.00;99568.84;5019618;28;20033;-68
2023/06/14 10:42:07;;;;;;;;;;;;;;;59.59;0.00;99562.34;5036488;28;20104;-68
2023/06/14 10:44:44;;;;;;;4.65;1.85;;;;;;;59.24;0.00;99549.06;5036355;28;20332;-67
2023/06/14 10:47:26;;;;;;;6.70;2.05;;;;;;;58.96;0.10;99551.34;5007247;28;20369;-69
2023/06/14 10:49:58;;;;;;;8.85;2.10;;;;;;;58.36;0.24;99548.59;5039521;28;20124;-68
2023/06/14 10:52:28;;;;;;;4.50;1.90;;;;;;;57.96;0.33;99541.59;5040135;28;20113;-68
2023/06/14 10:55:12;;;;;;;10.15;1.80;;;;;;;58.00;0.51;99539.34;5040008;28;20040;-68
2023/06/14 10:57:39;;;;;;;5.95;2.20;;;;;;;57.08;0.36;99543.53;5056087;28;20048;-68
2023/06/14 11:00:13;;;;;;;4.22;2.00;;;;;;;56.14;1.07;99540.50;5022862;28;20139;-68
2023/06/14 11:02:51;;;;;;;6.40;2.03;;;;;;;55.31;1.20;99533.84;5040069;28;20480;-67
2023/06/14 11:05:25;;;;;;;8.05;2.20;;;;;;;53.90;1.62;99540.53;5055691;28;20460;-67
2023/06/14 11:08:17;;;;;;;6.78;2.33;;;;;;;52.54;2.36;99525.94;5023411;28;20047;-67
2023/06/14 11:10:47;;;;;;;5.38;2.30;;;;;;;51.09;2.53;99516.03;5039068;28;20052;-67
2023/06/14 11:13:13;;;;;;;9.20;2.40;;;;;;;49.69;3.18;99520.94;5022595;28;20656;-67
2023/06/14 11:15:39;;;;;;;3.63;2.53;;;;;;;48.40;4.11;99512.47;5022909;28;20040;-67
2023/06/14 11:18:09;;;;;;;7.20;2.50;;;;;;;47.56;4.13;99511.63;5022407;28;20052;-66
2023/06/14 11:20:36;;;;;;;4.03;2.17;;;;;;;46.51;4.63;99517.38;5022558;28;20491;-67
2023/06/14 11:23:03;;;;;;;10.80;2.60;;;;;;;45.79;5.02;99509.13;5038882;28;20049;-67
2023/06/14 11:25:29;;;;;;;8.80;2.50;;;;;;;45.25;5.15;99508.38;5022678;28;20040;-66
2023/06/14 11:27:56;;;;;;;7.30;2.85;;;;;;;44.66;5.45;99501.13;5022411;28;20461;-66
2023/06/14 11:30:22;;;;;;;4.45;2.40;;;;;;;43.89;5.94;99487.09;5055301;28;20468;-67
2023/06/14 11:32:50;;;;;;;6.72;2.47;;;;;;;43.22;6.19;99494.59;5022354;28;20102;-66
2023/06/14 11:35:17;;;;;;;8.15;2.55;;;;;;;42.74;6.43;99495.41;5038598;28;20080;-66